Time;durP1;ratioP1;P1;durP2;ratioP2;P2;SDS_P1;SDS_P2;PMS_P1;PMS_P2;Temp;Humidity;BMP_temperature;BMP_pressure;BME280_temperature;BME280_humidity;BME280_pressure;Samples;Min_cycle;Max_cycle;Signal;HPM_P1;HPM_P2
2021/03/21 00:01:37;;;;;;;3.47;3.17;;;5.90;57.20;;;;;;5009917;28;20217;-90
2021/03/21 00:04:03;;;;;;;4.20;3.90;;;6.00;56.70;;;;;;4976087;28;20205;-90
2021/03/21 00:06:29;;;;;;;7.33;4.43;;;5.90;56.30;;;;;;5009590;28;20598;-90
2021/03/21 00:08:55;;;;;;;4.23;3.83;;;5.80;54.80;;;;;;5002391;28;20183;-90
2021/03/21 00:11:22;;;;;;;4.27;3.60;;;5.50;55.50;;;;;;4990417;28;20198;-87
2021/03/21 00:13:48;;;;;;;4.50;3.60;;;5.40;55.80;;;;;;4990246;28;20175;-90
2021/03/21 00:16:14;;;;;;;5.37;4.00;;;5.40;55.50;;;;;;4990483;28;20647;-89
2021/03/21 00:18:41;;;;;;;4.57;3.90;;;5.30;55.50;;;;;;4990642;28;20198;-90
2021/03/21 00:21:09;;;;;;;4.27;3.77;;;5.30;55.10;;;;;;4990253;28;20210;-90
2021/03/21 00:23:35;;;;;;;4.20;3.60;;;5.20;54.10;;;;;;4990324;28;20184;-90
2021/03/21 00:26:02;;;;;;;5.40;3.80;;;5.10;55.90;;;;;;4990312;28;20203;-91
2021/03/21 00:28:31;;;;;;;4.70;3.77;;;4.90;55.70;;;;;;4972989;28;20205;-90
2021/03/21 00:30:58;;;;;;;5.13;3.80;;;4.80;56.60;;;;;;4972979;28;20207;-89
2021/03/21 00:33:26;;;;;;;5.40;4.03;;;4.70;57.20;;;;;;4957143;28;20689;-89
2021/03/21 00:35:56;;;;;;;5.73;4.27;;;4.70;58.20;;;;;;4990459;28;20270;-90
2021/03/21 00:38:34;;;;;;;5.47;4.67;;;4.70;57.60;;;;;;5004039;28;20220;-90
2021/03/21 00:41:00;;;;;;;4.80;4.00;;;4.80;57.30;;;;;;5008967;28;20208;-91
2021/03/21 00:43:26;;;;;;;5.37;4.13;;;4.60;58.00;;;;;;5008046;28;20182;-91
2021/03/21 00:45:53;;;;;;;4.40;4.00;;;4.70;57.40;;;;;;4983379;28;20199;-90
2021/03/21 00:48:29;;;;;;;4.60;4.03;;;4.60;58.00;;;;;;4988907;28;20186;-90
2021/03/21 00:50:56;;;;;;;5.87;4.23;;;4.50;57.00;;;;;;4971336;28;20270;-90
2021/03/21 00:53:22;;;;;;;5.87;5.10;;;4.50;57.80;;;;;;4971060;28;20187;-91
2021/03/21 00:55:48;;;;;;;4.80;4.40;;;4.60;58.00;;;;;;4997060;28;20250;-90
2021/03/21 00:58:13;;;;;;;4.70;4.17;;;4.50;57.30;;;;;;5007679;28;20278;-90
2021/03/21 01:00:45;;;;;;;5.60;4.60;;;4.40;58.10;;;;;;5007979;28;20210;-90
2021/03/21 01:03:12;;;;;;;6.23;5.00;;;4.40;57.80;;;;;;4990572;28;20212;-91
2021/03/21 01:05:46;;;;;;;4.77;4.37;;;4.40;57.50;;;;;;5007209;28;20293;-90
2021/03/21 01:08:22;;;;;;;5.77;4.63;;;4.40;57.60;;;;;;5007716;28;20702;-91
2021/03/21 01:10:49;;;;;;;6.00;4.67;;;4.30;58.20;;;;;;5007900;28;20226;-90
2021/03/21 01:13:16;;;;;;;6.33;4.60;;;4.40;57.00;;;;;;5007707;28;20229;-90
2021/03/21 01:15:42;;;;;;;5.60;5.00;;;4.40;56.80;;;;;;4989176;28;20187;-90
2021/03/21 01:18:18;;;;;;;5.17;4.67;;;4.50;57.30;;;;;;4988911;28;20174;-89
2021/03/21 01:20:45;;;;;;;7.07;4.73;;;4.30;57.20;;;;;;4987566;28;20547;-90
2021/03/21 01:23:11;;;;;;;7.53;4.87;;;4.30;58.30;;;;;;4987164;28;20187;-90
2021/03/21 01:25:38;;;;;;;7.03;5.27;;;4.30;57.70;;;;;;4987163;28;20202;-90
2021/03/21 01:28:17;;;;;;;5.97;5.17;;;4.30;57.80;;;;;;4987901;28;20180;-90
2021/03/21 01:30:42;;;;;;;8.10;6.13;;;4.20;57.90;;;;;;5004771;28;20232;-90
2021/03/21 01:33:08;;;;;;;6.27;5.20;;;4.30;56.30;;;;;;5004465;28;20209;-90
2021/03/21 01:35:34;;;;;;;9.00;6.00;;;4.20;56.90;;;;;;5004581;28;20186;-90
2021/03/21 01:37:59;;;;;;;6.27;5.23;;;4.30;56.50;;;;;;5003221;28;20186;-90
2021/03/21 01:40:25;;;;;;;6.17;5.27;;;4.40;55.90;;;;;;4967178;28;20638;-90
2021/03/21 01:42:51;;;;;;;7.57;5.27;;;4.30;56.00;;;;;;4999412;28;20248;-90
2021/03/21 01:45:38;;;;;;;7.73;5.60;;;4.30;56.00;;;;;;5001399;28;20685;-90
2021/03/21 01:48:27;;;;;;;6.70;5.03;;;4.20;56.10;;;;;;5001213;28;20245;-90
2021/03/21 01:51:05;;;;;;;7.47;5.67;;;4.20;55.50;;;;;;4968986;28;20250;-90
2021/03/21 01:53:34;;;;;;;7.30;5.40;;;4.10;56.70;;;;;;4967443;28;20167;-90
2021/03/21 01:56:01;;;;;;;7.03;5.47;;;3.90;56.30;;;;;;4981425;28;20197;-91
2021/03/21 01:58:29;;;;;;;6.73;5.63;;;4.00;56.50;;;;;;4997336;28;20187;-90
2021/03/21 02:00:58;;;;;;;8.10;6.30;;;4.00;55.80;;;;;;4983321;28;20203;-90
2021/03/21 02:03:25;;;;;;;5.50;4.60;;;4.10;55.50;;;;;;4983387;28;20203;-90
2021/03/21 02:06:01;;;;;;;5.80;5.13;;;4.10;55.80;;;;;;4983660;28;20207;-90
2021/03/21 02:08:48;;;;;;;5.77;4.97;;;4.20;55.50;;;;;;4986258;28;20447;-90
2021/03/21 02:11:34;;;;;;;5.97;4.67;;;4.00;55.60;;;;;;5002434;28;20228;-90
2021/03/21 02:14:16;;;;;;;6.90;4.87;;;3.90;55.40;;;;;;5002425;28;20177;-91
2021/03/21 02:16:49;;;;;;;5.37;4.87;;;4.00;55.60;;;;;;5002910;28;20166;-91
2021/03/21 02:22:31;;;;;;;7.10;5.23;;;4.00;56.00;;;;;;4981765;28;20226;-85
2021/03/21 02:25:32;;;;;;;6.83;5.20;;;3.90;55.70;;;;;;4982610;28;20201;-85
2021/03/21 02:28:35;;;;;;;5.90;5.07;;;3.80;56.20;;;;;;4981838;28;20698;-85
2021/03/21 02:31:16;;;;;;;6.47;5.27;;;4.00;56.50;;;;;;4981298;28;20269;-85
2021/03/21 02:34:16;;;;;;;6.47;5.27;;;3.80;56.10;;;;;;4982404;28;20175;-85
2021/03/21 02:36:49;;;;;;;5.70;4.90;;;3.80;56.40;;;;;;4982157;28;20182;-85
2021/03/21 02:39:27;;;;;;;5.67;5.03;;;3.80;56.20;;;;;;4949044;29;20658;-85
2021/03/21 02:42:04;;;;;;;7.80;5.50;;;3.90;57.00;;;;;;4962987;29;20258;-85
2021/03/21 02:44:44;;;;;;;6.70;5.07;;;4.00;57.30;;;;;;4963091;28;20187;-85
2021/03/21 02:47:16;;;;;;;5.80;4.30;;;4.00;56.70;;;;;;4962850;29;20190;-85
2021/03/21 02:49:47;;;;;;;4.80;4.07;;;4.10;55.50;;;;;;4981969;28;20194;-85
2021/03/21 02:52:26;;;;;;;5.97;3.70;;;4.20;56.30;;;;;;4982045;28;20190;-85
2021/03/21 02:55:10;;;;;;;5.17;3.47;;;4.10;55.10;;;;;;4971568;28;20180;-85
2021/03/21 02:57:44;;;;;;;6.57;3.80;;;4.10;56.90;;;;;;4945208;29;20286;-85
2021/03/21 03:00:12;;;;;;;4.37;3.70;;;4.10;56.60;;;;;;4962684;29;20199;-85
2021/03/21 03:02:51;;;;;;;5.17;3.70;;;3.90;57.30;;;;;;4950380;28;20278;-85
2021/03/21 03:05:27;;;;;;;4.47;3.70;;;4.00;57.40;;;;;;4995948;28;20223;-85
2021/03/21 03:07:56;;;;;;;6.03;4.10;;;4.10;57.70;;;;;;4966849;28;20255;-85
2021/03/21 03:10:22;;;;;;;5.00;4.13;;;4.10;57.80;;;;;;4962837;29;20239;-85
2021/03/21 03:12:54;;;;;;;5.43;4.30;;;4.10;56.80;;;;;;4972100;28;20164;-85
2021/03/21 03:15:21;;;;;;;4.67;4.20;;;4.00;57.90;;;;;;4995912;28;20207;-84
2021/03/21 03:18:12;;;;;;;4.53;3.87;;;4.00;57.80;;;;;;4982349;28;20182;-84
2021/03/21 03:20:46;;;;;;;5.47;4.17;;;4.00;58.10;;;;;;4982852;28;20313;-85
2021/03/21 03:23:33;;;;;;;5.37;4.03;;;4.10;57.20;;;;;;4980800;28;20517;-85
2021/03/21 03:26:31;;;;;;;4.90;4.33;;;4.20;57.40;;;;;;4963730;28;20226;-85
2021/03/21 03:29:24;;;;;;;5.80;4.47;;;4.20;56.90;;;;;;4963965;29;20199;-85
2021/03/21 03:31:59;;;;;;;4.57;4.17;;;4.30;56.40;;;;;;4964857;29;20196;-85
2021/03/21 03:34:27;;;;;;;5.13;4.53;;;4.20;56.30;;;;;;4976809;28;20242;-85
2021/03/21 03:36:53;;;;;;;4.80;4.40;;;4.20;55.90;;;;;;4991659;28;20178;-85
2021/03/21 03:39:20;;;;;;;6.53;5.00;;;4.20;55.80;;;;;;4987697;28;20201;-85
2021/03/21 03:42:07;;;;;;;5.27;4.50;;;4.10;56.60;;;;;;4976648;28;20306;-84
2021/03/21 03:44:52;;;;;;;5.30;4.60;;;4.00;57.70;;;;;;4974869;28;20643;-85
2021/03/21 03:47:32;;;;;;;6.47;4.53;;;3.90;57.60;;;;;;4961420;29;20582;-85
2021/03/21 03:50:18;;;;;;;5.70;4.97;;;4.00;57.90;;;;;;4945063;29;20191;-85
2021/03/21 03:53:09;;;;;;;7.77;4.90;;;4.00;57.70;;;;;;4944110;29;20187;-85
2021/03/21 03:56:01;;;;;;;5.93;4.40;;;3.90;57.50;;;;;;4941338;29;20188;-85
2021/03/21 03:58:52;;;;;;;5.40;4.90;;;4.10;57.60;;;;;;4942386;29;20267;-85
2021/03/21 04:01:31;;;;;;;5.83;5.10;;;4.10;56.90;;;;;;4959586;28;20669;-85
2021/03/21 04:04:03;;;;;;;6.13;4.87;;;4.10;56.90;;;;;;4980690;28;20190;-85
2021/03/21 04:06:52;;;;;;;5.17;4.40;;;4.20;56.50;;;;;;4976296;28;20227;-85
2021/03/21 04:09:33;;;;;;;5.97;4.80;;;4.30;56.20;;;;;;4944488;29;20187;-86
2021/03/21 04:12:14;;;;;;;5.23;4.53;;;4.20;55.80;;;;;;4962119;28;20246;-85
2021/03/21 04:14:45;;;;;;;4.63;4.20;;;4.20;56.00;;;;;;4962074;29;20198;-85
2021/03/21 04:17:20;;;;;;;5.20;4.50;;;4.10;55.70;;;;;;4961741;28;20184;-85
2021/03/21 04:19:52;;;;;;;5.03;4.23;;;3.90;56.40;;;;;;4961732;29;20183;-85
2021/03/21 04:22:24;;;;;;;4.67;4.10;;;3.80;57.70;;;;;;4978553;28;20282;-85
2021/03/21 04:24:56;;;;;;;4.90;4.00;;;3.80;56.90;;;;;;4980751;28;20191;-85
2021/03/21 04:27:29;;;;;;;5.00;4.30;;;3.90;57.00;;;;;;4980556;28;20160;-85
2021/03/21 04:30:03;;;;;;;6.33;3.97;;;3.90;56.00;;;;;;4981146;28;20187;-85
2021/03/21 04:32:41;;;;;;;3.83;3.47;;;3.80;58.00;;;;;;4962188;28;20194;-85
2021/03/21 04:35:35;;;;;;;4.67;3.60;;;3.80;57.30;;;;;;4961962;28;20168;-85
2021/03/21 04:38:06;;;;;;;5.03;4.27;;;3.60;57.10;;;;;;4956329;28;20192;-85
2021/03/21 04:40:32;;;;;;;4.67;4.00;;;3.50;57.40;;;;;;4950694;28;20662;-85
2021/03/21 04:43:11;;;;;;;4.50;3.53;;;3.50;57.90;;;;;;4971425;28;20179;-85
2021/03/21 04:45:45;;;;;;;4.57;3.87;;;3.50;57.50;;;;;;4984104;28;20194;-86
2021/03/21 04:48:15;;;;;;;4.17;3.67;;;3.50;59.20;;;;;;4985234;28;20283;-85
2021/03/21 04:50:41;;;;;;;4.83;4.03;;;3.60;57.50;;;;;;4984554;28;20632;-86
2021/03/21 04:53:29;;;;;;;5.87;3.73;;;3.60;56.60;;;;;;4967150;28;20226;-85
2021/03/21 04:56:01;;;;;;;5.57;4.17;;;3.60;56.50;;;;;;4965267;28;20184;-85
2021/03/21 04:58:42;;;;;;;4.03;3.60;;;3.60;56.60;;;;;;4964366;29;20279;-85
2021/03/21 05:01:27;;;;;;;4.83;3.80;;;3.60;57.10;;;;;;4963401;28;20207;-85
2021/03/21 05:04:03;;;;;;;4.33;3.37;;;3.70;56.90;;;;;;4965814;29;20286;-85
2021/03/21 05:06:52;;;;;;;4.80;3.97;;;3.70;57.30;;;;;;4949093;29;20231;-85
2021/03/21 05:09:43;;;;;;;4.30;3.73;;;3.70;57.10;;;;;;4965545;29;20179;-84
2021/03/21 05:12:15;;;;;;;4.97;4.10;;;3.60;57.60;;;;;;4965336;28;20204;-84
2021/03/21 05:15:13;;;;;;;4.67;3.80;;;3.80;56.40;;;;;;4964448;29;20175;-84
2021/03/21 05:18:16;;;;;;;3.87;3.47;;;3.80;57.20;;;;;;4934238;29;20200;-84
2021/03/21 05:21:04;;;;;;;4.50;4.00;;;3.90;57.20;;;;;;4965677;28;20229;-84
2021/03/21 05:23:39;;;;;;;5.13;4.07;;;4.00;57.80;;;;;;4965727;28;20179;-84
2021/03/21 05:26:12;;;;;;;4.00;3.60;;;4.00;58.20;;;;;;4947558;29;20253;-84
2021/03/21 05:28:59;;;;;;;5.00;3.87;;;4.00;58.40;;;;;;4965086;29;20578;-85
2021/03/21 05:31:26;;;;;;;4.87;3.73;;;4.00;58.10;;;;;;4956357;28;20218;-84
2021/03/21 05:33:52;;;;;;;6.23;4.13;;;4.00;58.50;;;;;;4984112;28;20214;-84
2021/03/21 05:36:55;;;;;;;9.73;4.47;;;4.00;58.10;;;;;;4966578;28;20194;-84
2021/03/21 05:39:42;;;;;;;5.87;4.63;;;3.90;59.00;;;;;;4986012;28;20175;-85
2021/03/21 05:42:25;;;;;;;4.87;3.80;;;3.80;59.40;;;;;;4986592;28;20194;-85
2021/03/21 05:45:34;;;;;;;4.90;4.23;;;3.70;59.90;;;;;;4987102;28;20219;-85
2021/03/21 05:48:21;;;;;;;7.07;3.97;;;3.60;59.70;;;;;;4957957;28;20201;-84
2021/03/21 05:51:11;;;;;;;5.27;4.10;;;3.70;59.60;;;;;;4986047;28;20213;-84
2021/03/21 05:53:56;;;;;;;6.77;4.13;;;3.70;59.50;;;;;;4995613;28;20238;-84
2021/03/21 05:56:55;;;;;;;4.10;3.70;;;3.70;59.70;;;;;;4976273;28;20238;-83
2021/03/21 05:59:42;;;;;;;4.73;3.93;;;3.70;59.30;;;;;;4974777;28;20247;-84
2021/03/21 06:02:39;;;;;;;6.53;4.13;;;3.70;59.50;;;;;;4966091;28;20204;-84
2021/03/21 06:05:30;;;;;;;6.50;4.67;;;3.60;59.70;;;;;;4973370;28;20181;-83
2021/03/21 06:08:20;;;;;;;5.83;4.70;;;3.60;59.90;;;;;;4979182;28;20184;-83
2021/03/21 06:11:16;;;;;;;5.67;4.43;;;3.60;59.10;;;;;;4966101;29;20693;-84
2021/03/21 06:13:44;;;;;;;5.87;4.00;;;3.70;58.30;;;;;;4946325;29;20242;-84
2021/03/21 06:16:20;;;;;;;5.67;4.27;;;3.80;58.90;;;;;;4945788;29;20196;-84
2021/03/21 06:19:30;;;;;;;4.80;3.83;;;3.60;58.10;;;;;;4945057;29;20299;-84
2021/03/21 06:22:15;;;;;;;5.50;4.53;;;3.70;58.30;;;;;;4952783;28;20250;-84
2021/03/21 06:24:58;;;;;;;6.00;3.63;;;3.70;58.40;;;;;;4965638;28;20238;-84
2021/03/21 06:27:54;;;;;;;7.60;4.27;;;3.80;56.90;;;;;;4964826;29;20184;-83
2021/03/21 06:30:45;;;;;;;6.23;4.33;;;3.70;57.60;;;;;;4964499;29;20196;-84
2021/03/21 06:33:34;;;;;;;4.57;4.17;;;3.50;59.00;;;;;;4980464;28;20487;-85
2021/03/21 06:36:10;;;;;;;6.60;4.50;;;3.70;58.60;;;;;;4983743;28;20270;-84
2021/03/21 06:38:51;;;;;;;4.63;4.07;;;3.80;57.90;;;;;;4965644;28;20187;-84
2021/03/21 06:41:43;;;;;;;4.20;3.70;;;3.80;57.10;;;;;;4982009;28;20286;-84
2021/03/21 06:44:16;;;;;;;4.60;3.93;;;3.70;57.50;;;;;;4960171;29;20663;-84
2021/03/21 06:47:07;;;;;;;4.87;4.20;;;3.80;58.10;;;;;;4964516;28;20208;-84
2021/03/21 06:49:39;;;;;;;6.77;3.67;;;3.80;58.30;;;;;;4963308;28;20180;-86
2021/03/21 06:52:25;;;;;;;4.10;3.70;;;3.80;57.80;;;;;;4969780;28;20217;-84
2021/03/21 06:55:01;;;;;;;5.90;5.00;;;3.80;57.50;;;;;;4970990;28;20662;-84
2021/03/21 06:58:06;;;;;;;5.13;3.97;;;3.80;57.80;;;;;;4966721;28;20183;-84
2021/03/21 07:00:50;;;;;;;6.13;4.27;;;3.80;56.80;;;;;;4982619;28;20187;-84
2021/03/21 07:03:40;;;;;;;5.20;3.87;;;3.70;58.30;;;;;;4983642;28;20646;-84
2021/03/21 07:06:09;;;;;;;4.73;4.30;;;3.70;58.50;;;;;;4981729;28;20218;-84
2021/03/21 07:08:37;;;;;;;6.03;4.17;;;3.60;58.50;;;;;;4965188;28;20288;-85
2021/03/21 07:11:36;;;;;;;4.77;4.23;;;3.60;57.70;;;;;;4964899;29;20195;-84
2021/03/21 07:14:14;;;;;;;4.60;4.10;;;3.80;57.70;;;;;;4969624;28;20182;-85
2021/03/21 07:17:11;;;;;;;4.70;4.23;;;3.80;57.30;;;;;;4983425;28;20178;-85
2021/03/21 07:20:18;;;;;;;5.60;4.43;;;3.70;58.30;;;;;;4982929;28;20181;-84
2021/03/21 07:23:18;;;;;;;6.33;4.03;;;3.70;57.20;;;;;;4975906;28;20275;-85
2021/03/21 07:25:56;;;;;;;5.13;4.40;;;3.80;56.90;;;;;;4968334;28;20203;-84
2021/03/21 07:28:36;;;;;;;6.07;4.47;;;3.80;57.20;;;;;;4941355;28;20252;-85
2021/03/21 07:31:34;;;;;;;4.93;4.37;;;3.70;57.20;;;;;;4982777;28;20202;-85
2021/03/21 07:34:26;;;;;;;7.00;4.87;;;3.70;58.20;;;;;;4913084;28;20193;-85
2021/03/21 07:37:15;;;;;;;5.67;4.47;;;3.60;58.10;;;;;;4965258;29;20587;-85
2021/03/21 07:39:59;;;;;;;5.07;4.60;;;3.70;57.90;;;;;;4965192;29;20291;-84
2021/03/21 07:43:29;;;;;;;6.07;4.50;;;3.90;57.80;;;;;;4966459;28;20179;-84
2021/03/21 07:46:14;;;;;;;5.90;4.67;;;4.00;57.70;;;;;;4859839;29;20218;-84
2021/03/21 07:48:52;;;;;;;9.47;5.10;;;4.00;58.10;;;;;;4894348;29;20181;-84
2021/03/21 07:51:37;;;;;;;5.57;4.67;;;3.80;57.90;;;;;;4973828;28;20210;-86
2021/03/21 07:54:17;;;;;;;6.13;5.00;;;3.90;59.40;;;;;;4949506;29;20180;-84
2021/03/21 07:56:52;;;;;;;4.70;4.30;;;3.80;58.60;;;;;;4966155;28;20191;-86
2021/03/21 07:59:21;;;;;;;5.13;4.63;;;3.80;59.40;;;;;;4950585;29;20183;-85
2021/03/21 08:01:47;;;;;;;6.97;5.27;;;3.70;60.40;;;;;;4980609;28;20225;-84
2021/03/21 08:04:24;;;;;;;9.23;5.50;;;3.80;59.40;;;;;;4987182;28;20258;-85
2021/03/21 08:06:58;;;;;;;7.60;5.17;;;4.00;59.50;;;;;;4992494;28;20202;-85
2021/03/21 08:09:36;;;;;;;7.20;5.10;;;4.10;58.40;;;;;;4987969;28;20174;-85
2021/03/21 08:12:22;;;;;;;7.53;5.10;;;4.20;57.90;;;;;;4979626;28;20195;-85
2021/03/21 08:15:05;;;;;;;6.27;5.23;;;4.20;57.60;;;;;;4968310;28;20231;-85
2021/03/21 08:17:36;;;;;;;5.93;5.27;;;4.20;58.10;;;;;;4978209;28;20179;-84
2021/03/21 08:20:16;;;;;;;5.73;4.40;;;4.40;56.70;;;;;;4970065;28;20180;-85
2021/03/21 08:22:42;;;;;;;6.57;4.87;;;4.40;55.50;;;;;;5017168;22;20233;-90
2021/03/21 08:25:25;;;;;;;5.43;4.93;;;4.40;56.30;;;;;;4989568;28;20185;-90
2021/03/21 08:27:53;;;;;;;5.10;4.60;;;4.50;56.00;;;;;;4988913;28;20171;-90
2021/03/21 08:30:22;;;;;;;6.43;5.40;;;4.60;54.70;;;;;;4990572;28;20182;-89
2021/03/21 08:32:59;;;;;;;7.77;5.10;;;4.70;54.80;;;;;;4989374;28;20191;-89
2021/03/21 08:35:34;;;;;;;5.90;4.60;;;4.60;54.80;;;;;;4988173;28;20175;-90
2021/03/21 08:38:17;;;;;;;7.30;4.27;;;4.70;54.30;;;;;;4987508;28;20183;-89
2021/03/21 08:40:44;;;;;;;6.77;4.63;;;4.60;53.90;;;;;;4988872;28;20195;-90
2021/03/21 08:43:16;;;;;;;5.30;4.57;;;4.60;54.50;;;;;;4953649;28;20202;-89
2021/03/21 08:45:55;;;;;;;6.07;4.33;;;4.60;55.20;;;;;;4970247;28;20225;-90
2021/03/21 08:48:25;;;;;;;6.03;4.70;;;4.60;55.50;;;;;;4988196;28;20171;-90
2021/03/21 08:50:56;;;;;;;5.90;4.13;;;4.70;55.40;;;;;;4967771;28;20194;-89
2021/03/21 08:53:30;;;;;;;5.17;4.60;;;4.70;56.30;;;;;;4968900;29;20260;-89
2021/03/21 08:56:17;;;;;;;5.20;4.43;;;4.80;55.10;;;;;;4968817;29;20170;-89
2021/03/21 08:58:44;;;;;;;4.60;4.20;;;4.90;55.50;;;;;;4970161;29;20164;-89
2021/03/21 09:01:16;;;;;;;6.53;4.57;;;4.80;54.70;;;;;;4952989;29;20207;-89
2021/03/21 09:03:43;;;;;;;7.33;5.10;;;4.90;55.40;;;;;;4982951;28;20269;-89
2021/03/21 09:06:26;;;;;;;4.90;4.40;;;5.00;55.20;;;;;;4991141;28;20771;-90
2021/03/21 09:08:52;;;;;;;5.33;4.57;;;5.00;55.30;;;;;;4990405;28;20669;-89
2021/03/21 09:11:34;;;;;;;5.83;4.50;;;5.00;55.70;;;;;;5008188;28;20202;-90
2021/03/21 09:14:04;;;;;;;7.17;4.30;;;4.90;55.50;;;;;;4993077;28;20210;-89
2021/03/21 09:16:30;;;;;;;6.60;4.70;;;4.80;55.00;;;;;;4987449;28;20186;-89
2021/03/21 09:19:17;;;;;;;5.33;4.83;;;4.80;55.30;;;;;;4996905;28;20201;-89
2021/03/21 09:21:46;;;;;;;5.67;4.37;;;4.90;55.90;;;;;;4990836;28;20260;-89
2021/03/21 09:24:27;;;;;;;6.40;4.47;;;5.00;55.60;;;;;;5004066;28;20182;-89
2021/03/21 09:26:53;;;;;;;5.00;4.27;;;5.00;56.20;;;;;;4986915;28;20246;-90
2021/03/21 09:29:22;;;;;;;8.23;4.70;;;5.10;56.30;;;;;;4953614;28;20241;-90
2021/03/21 09:31:56;;;;;;;7.20;5.60;;;5.10;56.90;;;;;;4986770;28;20199;-90
2021/03/21 09:34:52;;;;;;;6.63;5.17;;;5.10;57.60;;;;;;4951844;29;20167;-89
2021/03/21 09:37:23;;;;;;;8.57;6.20;;;5.10;58.10;;;;;;4968582;29;20163;-89
2021/03/21 09:40:01;;;;;;;6.43;5.60;;;5.10;59.20;;;;;;4969579;29;20172;-89
2021/03/21 09:42:27;;;;;;;8.73;5.67;;;4.90;61.00;;;;;;4969822;29;20210;-89
2021/03/21 09:44:53;;;;;;;7.87;5.53;;;4.90;60.20;;;;;;4957686;28;20649;-89
2021/03/21 09:47:40;;;;;;;6.20;5.57;;;5.00;60.90;;;;;;4970067;28;20222;-89
2021/03/21 09:50:15;;;;;;;9.53;6.60;;;5.10;61.40;;;;;;4987701;28;20168;-89
2021/03/21 09:52:42;;;;;;;6.70;5.80;;;5.00;61.80;;;;;;4972820;28;20206;-89
2021/03/21 09:55:27;;;;;;;6.83;6.10;;;4.90;62.90;;;;;;4989095;28;20195;-89
2021/03/21 09:58:28;;;;;;;7.13;6.27;;;5.00;60.90;;;;;;4990023;28;20183;-89
2021/03/21 10:01:14;;;;;;;7.43;6.40;;;5.10;62.90;;;;;;4973906;28;20198;-89
2021/03/21 10:03:44;;;;;;;8.53;7.13;;;5.00;65.70;;;;;;4971863;28;20175;-89
2021/03/21 10:06:42;;;;;;;8.43;6.97;;;5.10;65.50;;;;;;4971100;28;20195;-89
2021/03/21 10:09:20;;;;;;;7.73;6.70;;;4.90;66.90;;;;;;4983009;28;20233;-89
2021/03/21 10:11:49;;;;;;;8.83;6.77;;;5.00;67.30;;;;;;4996077;28;20230;-89
2021/03/21 10:14:29;;;;;;;6.63;5.90;;;5.00;67.20;;;;;;4968548;28;20206;-89
2021/03/21 10:16:57;;;;;;;8.17;6.90;;;4.90;66.40;;;;;;4989695;28;20240;-90
2021/03/21 10:19:48;;;;;;;10.90;6.93;;;5.00;66.30;;;;;;4974558;28;20634;-90
2021/03/21 10:22:28;;;;;;;8.27;7.40;;;4.80;67.60;;;;;;4983845;28;20535;-90
2021/03/21 10:24:56;;;;;;;9.90;7.30;;;4.70;69.40;;;;;;4973750;28;20182;-89
2021/03/21 10:27:33;;;;;;;8.10;7.30;;;4.60;71.30;;;;;;4985154;28;20215;-90
2021/03/21 10:30:05;;;;;;;8.17;7.37;;;4.50;72.30;;;;;;5003657;28;20186;-90
2021/03/21 10:32:32;;;;;;;11.57;8.10;;;4.40;74.50;;;;;;4996496;28;20313;-90
2021/03/21 10:35:00;;;;;;;8.67;7.77;;;4.50;74.20;;;;;;4982835;28;20196;-90
2021/03/21 10:37:40;;;;;;;9.20;7.87;;;4.70;74.60;;;;;;4999725;28;20539;-90
2021/03/21 10:40:12;;;;;;;11.27;7.57;;;4.60;74.90;;;;;;4998355;28;20178;-89
2021/03/21 10:42:47;;;;;;;8.40;7.37;;;4.60;76.20;;;;;;4997814;28;20306;-89
2021/03/21 10:45:17;;;;;;;8.33;7.53;;;4.60;76.00;;;;;;4998481;28;20268;-90
2021/03/21 10:47:46;;;;;;;8.77;7.23;;;4.50;77.30;;;;;;4999816;28;20178;-89
2021/03/21 10:50:54;;;;;;;9.07;7.80;;;4.60;76.70;;;;;;4982446;28;20206;-89
2021/03/21 10:53:33;;;;;;;11.60;8.47;;;4.50;77.70;;;;;;4987987;28;20203;-90
2021/03/21 10:56:17;;;;;;;9.50;8.50;;;4.50;78.10;;;;;;4982826;28;20170;-89
2021/03/21 10:58:46;;;;;;;10.97;8.80;;;4.60;77.80;;;;;;4966970;28;20678;-89
2021/03/21 11:01:21;;;;;;;12.07;9.40;;;4.50;77.70;;;;;;4975100;28;20225;-89
2021/03/21 11:03:57;;;;;;;10.60;8.77;;;4.70;78.00;;;;;;4979704;28;20179;-89
2021/03/21 11:06:27;;;;;;;11.77;8.37;;;4.70;77.10;;;;;;4978551;28;20218;-89
2021/03/21 11:08:53;;;;;;;9.67;8.67;;;4.90;76.10;;;;;;4981450;28;20191;-90
2021/03/21 11:11:20;;;;;;;11.77;8.87;;;4.90;77.20;;;;;;4975818;28;20213;-89
2021/03/21 11:13:47;;;;;;;13.10;8.87;;;4.90;76.80;;;;;;4972296;28;20229;-90
2021/03/21 11:16:19;;;;;;;10.47;8.67;;;5.20;75.10;;;;;;4972053;28;20187;-89
2021/03/21 11:18:49;;;;;;;11.33;8.73;;;5.10;75.90;;;;;;4984257;28;20190;-89
2021/03/21 11:21:15;;;;;;;9.20;8.10;;;5.10;76.90;;;;;;4975797;28;20215;-90
2021/03/21 11:23:55;;;;;;;11.10;8.50;;;5.10;76.70;;;;;;4977805;28;20221;-90
2021/03/21 11:26:35;;;;;;;8.77;7.90;;;5.10;75.80;;;;;;4967819;28;20222;-91
2021/03/21 11:29:03;;;;;;;12.43;8.37;;;5.20;76.30;;;;;;4980071;28;20741;-90
2021/03/21 11:31:37;;;;;;;10.07;8.33;;;5.40;73.90;;;;;;4963164;28;20241;-90
2021/03/21 11:34:17;;;;;;;10.97;8.27;;;5.50;73.90;;;;;;4979572;28;20215;-89
2021/03/21 11:36:44;;;;;;;9.70;8.60;;;5.50;72.50;;;;;;4976136;28;20194;-90
2021/03/21 11:39:20;;;;;;;10.00;8.63;;;5.50;73.00;;;;;;4959862;28;20194;-90
2021/03/21 11:41:46;;;;;;;10.40;9.23;;;5.50;72.80;;;;;;4979890;28;20265;-90
2021/03/21 11:44:22;;;;;;;8.40;7.50;;;5.40;73.90;;;;;;4947743;28;20198;-90
2021/03/21 11:46:49;;;;;;;9.50;8.50;;;5.40;73.40;;;;;;4980278;28;20297;-90
2021/03/21 11:49:17;;;;;;;10.47;8.80;;;5.60;72.50;;;;;;4980080;28;20274;-92
2021/03/21 11:51:45;;;;;;;9.93;8.43;;;5.60;73.70;;;;;;4982731;28;20215;-90
2021/03/21 11:54:21;;;;;;;9.57;8.20;;;5.90;72.10;;;;;;4956201;28;20218;-90
2021/03/21 11:57:07;;;;;;;10.17;9.07;;;6.00;72.20;;;;;;4978323;28;20193;-90
2021/03/21 11:59:53;;;;;;;8.90;8.00;;;6.40;70.10;;;;;;4978049;28;20662;-90
2021/03/21 12:02:40;;;;;;;11.93;9.00;;;6.30;68.90;;;;;;4981396;28;20238;-90
2021/03/21 12:05:15;;;;;;;10.90;8.37;;;6.10;70.00;;;;;;4970021;28;20289;-89
2021/03/21 12:07:40;;;;;;;10.43;9.43;;;5.80;72.40;;;;;;4985638;28;20189;-90
2021/03/21 12:10:07;;;;;;;10.73;8.40;;;5.90;72.40;;;;;;4978524;28;20195;-90
2021/03/21 12:12:39;;;;;;;10.47;8.90;;;6.20;71.10;;;;;;4948485;28;20218;-89
2021/03/21 12:15:13;;;;;;;9.63;8.67;;;6.40;71.50;;;;;;4983577;28;20187;-88
2021/03/21 12:17:41;;;;;;;9.90;8.83;;;6.10;70.70;;;;;;4983995;28;20187;-89
2021/03/21 12:20:39;;;;;;;10.43;9.30;;;5.80;72.20;;;;;;4990883;28;20213;-89
2021/03/21 12:23:06;;;;;;;12.13;9.57;;;5.80;72.70;;;;;;4987498;28;20286;-89
2021/03/21 12:25:35;;;;;;;11.07;9.73;;;5.60;73.40;;;;;;4992704;28;20315;-88
2021/03/21 12:28:12;;;;;;;12.60;9.30;;;5.50;75.00;;;;;;4980005;28;20183;-88
2021/03/21 12:30:45;;;;;;;11.60;8.93;;;5.60;74.90;;;;;;5003001;28;20203;-88
2021/03/21 12:33:22;;;;;;;10.23;9.10;;;5.80;74.60;;;;;;4977633;28;20198;-89
2021/03/21 12:35:47;;;;;;;10.57;9.43;;;5.90;75.00;;;;;;4976497;28;20186;-89
2021/03/21 12:38:37;;;;;;;11.03;9.30;;;5.90;75.50;;;;;;4956169;29;20187;-89
2021/03/21 12:41:29;;;;;;;12.80;10.27;;;5.90;75.00;;;;;;4983498;28;20199;-89
2021/03/21 12:44:11;;;;;;;10.73;9.63;;;5.90;75.20;;;;;;4983645;28;20187;-90
2021/03/21 12:46:59;;;;;;;13.10;9.30;;;6.00;76.10;;;;;;4984574;28;20287;-89
2021/03/21 12:49:46;;;;;;;11.83;10.37;;;6.00;77.30;;;;;;4986482;28;20190;-91
2021/03/21 12:52:21;;;;;;;11.20;10.03;;;6.10;76.10;;;;;;4982240;28;20218;-89
2021/03/21 12:54:48;;;;;;;12.07;10.80;;;6.20;75.20;;;;;;4972948;28;20437;-91
2021/03/21 12:57:14;;;;;;;11.27;10.10;;;6.30;74.70;;;;;;4960176;28;20593;-89
2021/03/21 12:59:43;;;;;;;11.83;10.63;;;6.40;74.50;;;;;;4966483;28;20199;-89
2021/03/21 13:02:18;;;;;;;11.27;10.03;;;6.40;74.10;;;;;;4981443;28;20967;-91
2021/03/21 13:04:43;;;;;;;13.43;10.73;;;6.30;75.50;;;;;;4981044;28;20214;-91
2021/03/21 13:07:11;;;;;;;13.60;11.20;;;6.30;74.70;;;;;;4985149;28;20238;-91
2021/03/21 13:09:38;;;;;;;11.03;9.87;;;6.20;77.00;;;;;;4973819;28;20285;-88
2021/03/21 13:12:04;;;;;;;13.40;10.37;;;6.30;74.40;;;;;;4971556;28;20199;-89
2021/03/21 13:14:30;;;;;;;11.87;10.43;;;6.20;74.00;;;;;;4981542;28;20770;-89
2021/03/21 13:16:55;;;;;;;12.37;10.87;;;6.30;74.60;;;;;;4980326;28;20199;-89
2021/03/21 13:19:21;;;;;;;12.40;9.73;;;6.40;75.10;;;;;;4953312;28;20198;-89
2021/03/21 13:21:48;;;;;;;12.13;10.20;;;6.40;73.50;;;;;;4947288;29;20250;-90
2021/03/21 13:24:14;;;;;;;11.83;10.13;;;6.40;73.50;;;;;;4977120;28;20192;-89
2021/03/21 13:26:40;;;;;;;11.87;10.60;;;6.30;74.30;;;;;;4973919;28;20223;-88
2021/03/21 13:29:05;;;;;;;12.57;10.83;;;6.30;75.90;;;;;;4981292;28;20187;-89
2021/03/21 13:31:31;;;;;;;12.73;10.67;;;6.20;75.90;;;;;;4949944;28;20218;-89
2021/03/21 13:33:57;;;;;;;11.97;9.83;;;6.30;74.70;;;;;;4977571;28;20172;-89
2021/03/21 13:36:23;;;;;;;12.00;10.80;;;6.40;76.10;;;;;;4981095;28;20717;-89
2021/03/21 13:38:50;;;;;;;16.53;12.00;;;6.40;75.60;;;;;;4982541;28;20667;-90
2021/03/21 13:41:16;;;;;;;12.40;11.10;;;6.20;75.90;;;;;;4980110;28;20215;-90
2021/03/21 13:43:42;;;;;;;13.10;10.73;;;6.30;75.60;;;;;;4982287;28;20550;-90
2021/03/21 13:46:08;;;;;;;14.00;11.27;;;6.50;74.30;;;;;;4985224;28;20693;-89
2021/03/21 13:48:35;;;;;;;12.90;11.60;;;6.50;74.30;;;;;;4968952;28;20317;-89